Time;durP1;ratioP1;P1;durP2;ratioP2;P2;SDS_P1;SDS_P2;PMS_P1;PMS_P2;Temp;Humidity;BMP_temperature;BMP_pressure;BME280_temperature;BME280_humidity;BME280_pressure;Samples;Min_cycle;Max_cycle;Signal;HPM_P1;HPM_P2
2023/08/21 00:01:43;;;;;;;13.02;7.55;;;21.40;99.90;;;;;;4944226;29;20050;-63
2023/08/21 00:04:15;;;;;;;10.02;7.22;;;21.40;99.90;;;;;;4945026;28;20049;-64
2023/08/21 00:06:47;;;;;;;10.32;8.00;;;21.30;99.90;;;;;;4945038;28;20050;-63
2023/08/21 00:09:14;;;;;;;9.18;7.43;;;21.30;99.90;;;;;;4939337;29;20036;-64
2023/08/21 00:11:46;;;;;;;10.70;7.38;;;21.30;99.90;;;;;;4978614;28;20135;-64
2023/08/21 00:14:17;;;;;;;9.05;7.78;;;21.30;99.90;;;;;;4940231;28;20114;-63
2023/08/21 00:16:49;;;;;;;8.85;7.95;;;21.40;99.90;;;;;;4942463;28;20483;-64
2023/08/21 00:19:21;;;;;;;9.88;7.57;;;21.30;99.90;;;;;;4948978;29;20051;-64
2023/08/21 00:21:52;;;;;;;7.93;7.22;;;21.20;99.90;;;;;;4947498;29;20039;-64
2023/08/21 00:24:24;;;;;;;9.27;7.70;;;21.20;99.90;;;;;;4974931;23;20038;-65
2023/08/21 00:26:56;;;;;;;7.50;6.80;;;21.10;99.90;;;;;;4986924;28;20039;-65
2023/08/21 00:29:28;;;;;;;9.38;7.45;;;21.20;99.90;;;;;;4969005;28;20046;-65
2023/08/21 00:32:00;;;;;;;8.85;7.80;;;21.20;99.90;;;;;;4979114;28;20043;-65
2023/08/21 00:34:32;;;;;;;10.60;7.35;;;21.20;99.90;;;;;;4974781;28;20695;-64
2023/08/21 00:36:59;;;;;;;8.68;7.65;;;21.10;99.90;;;;;;4972715;28;20058;-65
2023/08/21 00:39:31;;;;;;;8.00;7.20;;;21.10;99.90;;;;;;4971651;28;20507;-64
2023/08/21 00:42:03;;;;;;;8.93;7.65;;;21.00;99.90;;;;;;4971053;28;20039;-64
2023/08/21 00:44:35;;;;;;;8.13;7.32;;;21.00;99.90;;;;;;4967649;28;20418;-64
2023/08/21 00:47:07;;;;;;;9.77;8.05;;;21.00;99.90;;;;;;4969208;28;20063;-64
2023/08/21 00:49:39;;;;;;;8.85;7.32;;;21.00;99.90;;;;;;4957678;28;20043;-64
2023/08/21 00:52:13;;;;;;;10.30;7.82;;;20.90;99.90;;;;;;4970115;28;20583;-64
2023/08/21 00:54:40;;;;;;;11.05;8.52;;;20.90;99.90;;;;;;4985116;28;20043;-64
2023/08/21 00:57:14;;;;;;;8.63;7.75;;;20.90;99.90;;;;;;4970139;28;20166;-64
2023/08/21 00:59:40;;;;;;;9.02;8.13;;;20.90;99.90;;;;;;4973107;28;20380;-64
2023/08/21 01:02:12;;;;;;;9.55;7.60;;;20.80;99.90;;;;;;4965910;28;20043;-64
2023/08/21 01:04:44;;;;;;;9.05;8.13;;;20.80;99.90;;;;;;4968227;28;20109;-65
2023/08/21 01:07:16;;;;;;;8.63;7.82;;;20.80;99.90;;;;;;4979954;28;20153;-64
2023/08/21 01:10:00;;;;;;;8.43;7.63;;;20.80;99.90;;;;;;4977953;28;20495;-64
2023/08/21 01:12:54;;;;;;;8.45;7.65;;;20.80;99.90;;;;;;4966923;28;20097;-64
2023/08/21 01:15:26;;;;;;;9.68;8.52;;;20.80;99.90;;;;;;4968773;28;20133;-64
2023/08/21 01:17:54;;;;;;;8.40;7.57;;;20.70;99.90;;;;;;4971570;28;20047;-65
2023/08/21 01:20:27;;;;;;;11.27;8.32;;;20.70;99.90;;;;;;4969556;28;20035;-64
2023/08/21 01:23:05;;;;;;;8.45;7.55;;;20.70;99.90;;;;;;4972279;28;20065;-64
2023/08/21 01:25:37;;;;;;;8.30;7.50;;;20.70;99.90;;;;;;4974000;28;20039;-64
2023/08/21 01:28:09;;;;;;;10.57;8.10;;;20.70;99.90;;;;;;4975115;28;20066;-64
2023/08/21 01:30:42;;;;;;;9.35;8.07;;;20.80;99.90;;;;;;4971661;28;20787;-64
2023/08/21 01:33:16;;;;;;;10.98;8.90;;;20.90;99.90;;;;;;4970806;28;20038;-65
2023/08/21 01:35:49;;;;;;;12.02;8.10;;;20.80;99.90;;;;;;4980529;28;20034;-64
2023/08/21 01:38:21;;;;;;;9.32;7.97;;;20.80;99.90;;;;;;4982742;28;20077;-64
2023/08/21 01:40:53;;;;;;;9.38;8.13;;;20.70;99.90;;;;;;4973973;28;20419;-64
2023/08/21 01:43:25;;;;;;;10.32;8.18;;;20.60;99.90;;;;;;4971144;28;20043;-64
2023/08/21 01:45:58;;;;;;;9.93;8.98;;;20.60;99.90;;;;;;4970552;28;20085;-64
2023/08/21 01:48:25;;;;;;;10.05;7.93;;;20.50;99.90;;;;;;4975098;28;20101;-65
2023/08/21 01:51:00;;;;;;;9.10;8.20;;;20.40;99.90;;;;;;4979674;28;20035;-64
2023/08/21 01:53:31;;;;;;;11.57;7.93;;;20.30;99.90;;;;;;4973641;28;20043;-64
2023/08/21 01:55:58;;;;;;;10.57;8.38;;;20.30;99.90;;;;;;4973702;28;20496;-64
2023/08/21 01:58:32;;;;;;;9.55;8.00;;;20.30;99.90;;;;;;4976152;28;20042;-64
2023/08/21 02:01:04;;;;;;;8.80;7.70;;;20.20;99.90;;;;;;4974165;28;20534;-64
2023/08/21 02:03:36;;;;;;;10.05;8.48;;;20.20;99.90;;;;;;4985802;28;20047;-64
2023/08/21 02:06:03;;;;;;;8.93;7.65;;;20.20;99.90;;;;;;4975231;28;20526;-64
2023/08/21 02:08:35;;;;;;;9.43;8.48;;;20.20;99.90;;;;;;4974893;28;20038;-64
2023/08/21 02:11:07;;;;;;;10.10;8.63;;;20.20;99.90;;;;;;4971626;28;20057;-64
2023/08/21 02:13:34;;;;;;;9.43;8.52;;;20.20;99.90;;;;;;4974942;28;20099;-64
2023/08/21 02:16:06;;;;;;;9.60;8.60;;;20.20;99.90;;;;;;4973335;28;20046;-65
2023/08/21 02:18:38;;;;;;;11.30;8.90;;;20.10;99.90;;;;;;4970069;28;20055;-64
2023/08/21 02:21:10;;;;;;;11.23;8.50;;;20.10;99.90;;;;;;4969285;28;20066;-64
2023/08/21 02:23:37;;;;;;;9.32;8.38;;;20.20;99.90;;;;;;4975222;28;20043;-64
2023/08/21 02:26:03;;;;;;;11.07;8.48;;;20.20;99.90;;;;;;4974334;28;20794;-65
2023/08/21 02:28:35;;;;;;;11.00;8.70;;;20.20;99.90;;;;;;4987744;28;20114;-64
2023/08/21 02:31:02;;;;;;;8.82;7.93;;;20.20;99.90;;;;;;4971546;28;20097;-64
2023/08/21 02:33:34;;;;;;;10.10;7.95;;;20.30;99.90;;;;;;4972858;28;20054;-64
2023/08/21 02:36:07;;;;;;;9.77;8.88;;;20.30;99.90;;;;;;4969281;28;20039;-64
2023/08/21 02:38:38;;;;;;;;;;;20.40;99.90;;;;;;4975190;28;20038;-64
2023/08/21 02:41:07;;;;;;;10.57;8.63;;;20.40;99.90;;;;;;4970278;28;19922;-64
2023/08/21 02:43:39;;;;;;;10.32;8.95;;;20.30;99.90;;;;;;4974950;28;20043;-64
2023/08/21 02:46:05;;;;;;;9.63;8.57;;;20.30;99.90;;;;;;4970259;28;20495;-65
2023/08/21 02:48:37;;;;;;;12.40;8.85;;;20.20;99.90;;;;;;4975306;28;20097;-64
2023/08/21 02:51:09;;;;;;;10.45;9.18;;;20.20;99.90;;;;;;4971794;28;20058;-64
2023/08/21 02:53:41;;;;;;;10.98;8.55;;;20.10;99.90;;;;;;4972599;28;20106;-64
2023/08/21 02:56:12;;;;;;;9.20;8.18;;;20.10;99.90;;;;;;4987849;28;20051;-64
2023/08/21 02:58:44;;;;;;;9.85;8.63;;;20.00;99.90;;;;;;4974714;28;20042;-64
2023/08/21 03:01:17;;;;;;;9.55;8.52;;;19.90;99.90;;;;;;4973652;28;20057;-64
2023/08/21 03:03:49;;;;;;;9.40;8.53;;;19.90;99.90;;;;;;4973212;28;20093;-64
2023/08/21 03:06:20;;;;;;;9.20;8.38;;;19.90;99.90;;;;;;4970428;28;20044;-64
2023/08/21 03:08:53;;;;;;;10.60;8.60;;;19.80;99.90;;;;;;4974594;28;20038;-64
2023/08/21 03:11:25;;;;;;;13.35;8.65;;;19.80;99.90;;;;;;4969817;28;20524;-64
2023/08/21 03:13:57;;;;;;;10.05;8.93;;;19.70;99.90;;;;;;4964857;28;20074;-64
2023/08/21 03:16:29;;;;;;;9.30;8.40;;;19.80;99.90;;;;;;4974195;28;20051;-64
2023/08/21 03:19:01;;;;;;;13.02;9.00;;;19.80;99.90;;;;;;4974935;28;20078;-65
2023/08/21 03:21:33;;;;;;;10.60;9.18;;;19.80;99.90;;;;;;4974885;28;20725;-64
2023/08/21 03:24:06;;;;;;;11.57;8.77;;;19.80;99.90;;;;;;4959455;28;20039;-64
2023/08/21 03:26:38;;;;;;;9.35;8.35;;;19.70;99.90;;;;;;4974735;28;20071;-64
2023/08/21 03:29:10;;;;;;;9.25;8.15;;;19.80;99.90;;;;;;4972778;28;20519;-64
2023/08/21 03:31:42;;;;;;;9.25;8.10;;;19.80;99.90;;;;;;4979075;28;20511;-64
2023/08/21 03:34:13;;;;;;;10.25;7.97;;;19.80;99.90;;;;;;4975583;28;20050;-64
2023/08/21 03:36:46;;;;;;;11.57;8.38;;;19.80;99.90;;;;;;4984893;28;20043;-64
2023/08/21 03:39:18;;;;;;;9.25;8.45;;;19.90;99.90;;;;;;4954695;28;20079;-64
2023/08/21 03:41:46;;;;;;;9.32;8.35;;;19.90;99.90;;;;;;4982933;28;20045;-64
2023/08/21 03:44:14;;;;;;;12.77;9.13;;;19.90;99.90;;;;;;4981323;28;20054;-64
2023/08/21 03:46:46;;;;;;;9.70;8.48;;;19.90;99.90;;;;;;4972919;28;20043;-64
2023/08/21 03:49:18;;;;;;;10.15;8.82;;;19.90;99.90;;;;;;4964875;28;20090;-64
2023/08/21 03:51:50;;;;;;;9.50;8.40;;;19.80;99.90;;;;;;4972947;28;20113;-64
2023/08/21 03:54:22;;;;;;;9.73;8.73;;;19.70;99.90;;;;;;4968544;28;20054;-64
2023/08/21 03:56:54;;;;;;;12.68;10.75;;;19.70;99.90;;;;;;4990233;28;20043;-65
2023/08/21 03:59:27;;;;;;;10.68;9.40;;;19.60;99.90;;;;;;4969184;28;20058;-64
2023/08/21 04:02:00;;;;;;;10.25;9.23;;;19.60;99.90;;;;;;4963121;28;20038;-64
2023/08/21 04:04:26;;;;;;;10.35;9.20;;;19.60;99.90;;;;;;4988125;28;20081;-64
2023/08/21 04:06:58;;;;;;;10.88;9.88;;;19.70;99.90;;;;;;4972793;28;20098;-64
2023/08/21 04:09:25;;;;;;;11.70;9.30;;;19.70;99.90;;;;;;4984960;28;20039;-64
2023/08/21 04:11:57;;;;;;;9.60;8.70;;;19.60;99.90;;;;;;4972220;28;20046;-64
2023/08/21 04:14:29;;;;;;;10.70;8.90;;;19.60;99.90;;;;;;4987301;28;20047;-64
2023/08/21 04:17:00;;;;;;;9.88;8.55;;;19.60;99.90;;;;;;4970137;28;20043;-64
2023/08/21 04:19:32;;;;;;;11.95;9.07;;;19.60;99.90;;;;;;4989561;28;20070;-65
2023/08/21 04:22:04;;;;;;;9.05;8.13;;;19.50;99.90;;;;;;4980654;28;20105;-65
2023/08/21 04:24:36;;;;;;;9.43;8.40;;;19.40;99.90;;;;;;4972766;28;20043;-64
2023/08/21 04:27:08;;;;;;;9.88;8.43;;;19.40;99.90;;;;;;4973317;28;20118;-64
2023/08/21 04:29:40;;;;;;;10.38;8.00;;;19.40;99.90;;;;;;4985901;28;20466;-64
2023/08/21 04:32:12;;;;;;;12.18;8.63;;;19.40;99.90;;;;;;4971554;28;20118;-64
2023/08/21 04:34:45;;;;;;;9.52;8.18;;;19.40;99.90;;;;;;4969897;28;20162;-64
2023/08/21 04:37:17;;;;;;;9.63;8.73;;;19.30;99.90;;;;;;4969952;28;20043;-65
2023/08/21 04:39:53;;;;;;;9.05;8.15;;;19.30;99.90;;;;;;4973536;28;20506;-64
2023/08/21 04:42:21;;;;;;;11.05;8.52;;;19.30;99.90;;;;;;4986238;28;20463;-64
2023/08/21 04:44:53;;;;;;;10.57;8.37;;;19.30;99.90;;;;;;4973932;28;20058;-64
2023/08/21 04:47:27;;;;;;;9.15;8.23;;;19.20;99.90;;;;;;4968328;28;20061;-65
2023/08/21 04:49:59;;;;;;;10.60;8.57;;;19.20;99.90;;;;;;4983083;28;20451;-64
2023/08/21 04:52:31;;;;;;;9.77;8.43;;;19.20;99.90;;;;;;4980063;28;20039;-64
2023/08/21 04:55:03;;;;;;;9.85;8.60;;;19.30;99.90;;;;;;4971274;28;20039;-64
2023/08/21 04:57:32;;;;;;;11.50;9.05;;;19.30;99.90;;;;;;4973168;28;20040;-64
2023/08/21 05:00:07;;;;;;;11.85;8.55;;;19.20;99.90;;;;;;4967768;28;20515;-64
2023/08/21 05:02:41;;;;;;;11.30;8.70;;;19.20;99.90;;;;;;4977985;28;20098;-64
2023/08/21 05:05:13;;;;;;;9.98;8.98;;;19.30;99.90;;;;;;4957510;28;20066;-64
2023/08/21 05:07:45;;;;;;;9.95;8.85;;;19.20;99.90;;;;;;4977224;28;20130;-64
2023/08/21 05:10:18;;;;;;;13.23;9.13;;;19.20;99.90;;;;;;4977723;28;20038;-64
2023/08/21 05:12:45;;;;;;;14.93;9.05;;;19.20;99.90;;;;;;4981950;28;20110;-64
2023/08/21 05:15:17;;;;;;;14.63;9.15;;;19.20;99.90;;;;;;4976584;28;20055;-64
2023/08/21 05:17:50;;;;;;;18.83;10.63;;;19.20;99.90;;;;;;4986649;28;20043;-64
2023/08/21 05:20:22;;;;;;;14.98;10.02;;;19.20;99.90;;;;;;4961182;28;20519;-64
2023/08/21 05:22:54;;;;;;;11.73;9.35;;;19.30;99.90;;;;;;4989649;28;20058;-64
2023/08/21 05:25:26;;;;;;;11.75;9.60;;;19.40;99.90;;;;;;4977607;28;20039;-64
2023/08/21 05:27:57;;;;;;;11.05;9.38;;;19.50;99.90;;;;;;4989183;28;20042;-66
2023/08/21 05:30:29;;;;;;;10.70;9.70;;;19.60;99.90;;;;;;4982959;28;20053;-64
2023/08/21 05:33:02;;;;;;;11.02;9.65;;;19.60;99.90;;;;;;4989067;28;20130;-64
2023/08/21 05:35:35;;;;;;;11.40;9.40;;;19.70;99.90;;;;;;4987620;28;20063;-64
2023/08/21 05:38:07;;;;;;;10.75;8.75;;;19.80;99.90;;;;;;4981398;28;20042;-64
2023/08/21 05:40:41;;;;;;;9.85;8.85;;;19.80;99.90;;;;;;4987066;28;20043;-64
2023/08/21 05:43:13;;;;;;;10.95;8.48;;;19.90;99.90;;;;;;4973970;28;20050;-64
2023/08/21 05:45:46;;;;;;;11.43;9.43;;;20.00;99.90;;;;;;4980726;28;20519;-64
2023/08/21 05:48:14;;;;;;;11.32;9.13;;;20.10;99.90;;;;;;4976334;28;20051;-64
2023/08/21 05:50:51;;;;;;;12.82;9.98;;;20.10;99.90;;;;;;4988420;28;20424;-64
2023/08/21 05:53:23;;;;;;;9.75;8.80;;;20.20;99.90;;;;;;4984371;28;20042;-64
2023/08/21 05:55:55;;;;;;;12.27;10.25;;;20.20;99.90;;;;;;4973759;28;20042;-64
2023/08/21 05:58:23;;;;;;;13.27;10.98;;;20.20;99.90;;;;;;4970316;28;20050;-64
2023/08/21 06:00:54;;;;;;;11.82;10.02;;;20.30;99.90;;;;;;4971812;28;20960;-64
2023/08/21 06:03:27;;;;;;;11.75;10.35;;;20.30;99.90;;;;;;4958486;28;20073;-64
2023/08/21 06:06:15;;;;;;;13.88;11.18;;;20.30;99.90;;;;;;4975455;28;20430;-64
2023/08/21 06:08:48;;;;;;;12.73;11.43;;;20.30;99.90;;;;;;4991887;28;20066;-64
2023/08/21 06:11:15;;;;;;;12.60;11.38;;;20.30;99.90;;;;;;4973229;28;20551;-64
2023/08/21 06:13:47;;;;;;;13.68;12.27;;;20.30;99.90;;;;;;4982436;28;20050;-64
2023/08/21 06:16:19;;;;;;;12.85;11.52;;;20.30;99.90;;;;;;4989236;28;20035;-64
2023/08/21 06:18:51;;;;;;;15.13;12.13;;;20.30;99.90;;;;;;4982648;28;20116;-64
2023/08/21 06:21:23;;;;;;;13.60;12.13;;;20.30;99.90;;;;;;4969673;28;20042;-64
2023/08/21 06:23:50;;;;;;;12.80;11.52;;;20.40;99.90;;;;;;4980377;28;20038;-64
2023/08/21 06:26:22;;;;;;;13.02;11.60;;;20.40;99.90;;;;;;4969998;28;20038;-64
2023/08/21 06:28:54;;;;;;;15.70;12.05;;;20.40;99.90;;;;;;4958954;28;20051;-64
2023/08/21 06:31:25;;;;;;;13.10;11.80;;;20.50;99.90;;;;;;5009606;23;20052;-66
2023/08/21 06:33:58;;;;;;;13.85;12.10;;;20.60;99.90;;;;;;4999987;28;20049;-65
2023/08/21 06:36:30;;;;;;;13.80;12.43;;;20.60;99.90;;;;;;4977778;28;20121;-66
2023/08/21 06:38:57;;;;;;;15.68;12.98;;;20.70;99.90;;;;;;4987493;28;20050;-66
2023/08/21 06:41:29;;;;;;;14.88;13.25;;;20.70;99.90;;;;;;5000872;28;20074;-65
2023/08/21 06:44:00;;;;;;;15.13;13.27;;;20.80;99.90;;;;;;4983853;28;20045;-66
2023/08/21 06:46:36;;;;;;;16.23;12.35;;;20.90;99.90;;;;;;5001428;28;20039;-65
2023/08/21 06:49:03;;;;;;;14.07;12.57;;;20.90;99.90;;;;;;4984168;28;20588;-65
2023/08/21 06:51:35;;;;;;;14.07;12.32;;;21.00;99.90;;;;;;4988199;28;20117;-66
2023/08/21 06:54:02;;;;;;;14.18;12.77;;;21.10;99.90;;;;;;4989080;28;20050;-66
2023/08/21 06:56:34;;;;;;;15.02;11.68;;;21.20;99.90;;;;;;4980867;28;20094;-66
2023/08/21 06:59:01;;;;;;;16.55;14.68;;;21.30;99.90;;;;;;4982412;28;20046;-66
2023/08/21 07:01:35;;;;;;;14.90;11.68;;;21.40;99.90;;;;;;4978177;28;20043;-66
2023/08/21 07:04:06;;;;;;;15.82;13.50;;;21.50;99.90;;;;;;4978899;28;20034;-66
2023/08/21 07:06:39;;;;;;;14.55;12.52;;;21.60;99.90;;;;;;4983709;28;20034;-66
2023/08/21 07:09:05;;;;;;;15.23;13.60;;;21.60;99.90;;;;;;4986445;28;20038;-66
2023/08/21 07:11:37;;;;;;;16.58;12.57;;;21.70;99.90;;;;;;4997142;28;20577;-65
2023/08/21 07:14:09;;;;;;;13.88;12.02;;;21.80;99.90;;;;;;4984725;28;20577;-66
2023/08/21 07:16:41;;;;;;;14.23;12.40;;;22.00;99.90;;;;;;4984319;28;20414;-66
2023/08/21 07:19:13;;;;;;;14.55;11.98;;;22.00;99.90;;;;;;4977115;28;20030;-65
2023/08/21 07:21:46;;;;;;;;;;;22.10;99.90;;;;;;4979488;28;20046;-65
2023/08/21 07:24:19;;;;;;;15.05;11.55;;;22.20;99.90;;;;;;4977993;28;20022;-66
2023/08/21 07:26:51;;;;;;;15.57;12.52;;;22.40;99.90;;;;;;4982286;28;20034;-66
2023/08/21 07:29:23;;;;;;;13.18;11.98;;;22.50;99.90;;;;;;4980740;28;20034;-66
2023/08/21 07:31:49;;;;;;;16.08;12.45;;;22.70;99.90;;;;;;4985750;28;20038;-65
2023/08/21 07:34:21;;;;;;;13.77;12.38;;;22.80;99.90;;;;;;4991199;28;20038;-66
2023/08/21 07:36:53;;;;;;;14.73;12.00;;;23.00;99.90;;;;;;4966972;28;20065;-66
2023/08/21 07:39:25;;;;;;;14.25;12.48;;;23.10;99.90;;;;;;4985115;28;20121;-65
2023/08/21 07:41:57;;;;;;;14.23;11.90;;;23.20;99.90;;;;;;4979326;28;20168;-66
2023/08/21 07:44:29;;;;;;;17.08;13.07;;;23.30;99.90;;;;;;4978507;28;20034;-66
2023/08/21 07:47:01;;;;;;;15.00;13.07;;;23.40;99.90;;;;;;4986476;28;20643;-65
2023/08/21 07:49:33;;;;;;;15.15;13.13;;;23.50;99.90;;;;;;4978534;28;20046;-66
2023/08/21 07:52:05;;;;;;;14.50;12.60;;;23.60;99.90;;;;;;4983533;28;20050;-66
2023/08/21 07:54:36;;;;;;;14.02;12.70;;;23.60;99.90;;;;;;4983275;28;20050;-65
2023/08/21 07:57:04;;;;;;;17.65;14.48;;;23.70;99.90;;;;;;4981631;28;20081;-66
2023/08/21 07:59:35;;;;;;;14.27;12.67;;;23.80;99.90;;;;;;4983654;28;20081;-66
2023/08/21 08:02:07;;;;;;;13.75;12.35;;;23.90;99.90;;;;;;4981144;28;20293;-67
2023/08/21 08:04:40;;;;;;;15.20;13.60;;;24.10;99.90;;;;;;4986645;28;20027;-68
2023/08/21 08:07:11;;;;;;;13.52;12.23;;;24.20;99.90;;;;;;4978267;28;20050;-67
2023/08/21 08:09:44;;;;;;;14.35;12.85;;;24.30;99.90;;;;;;4999096;28;20043;-68
2023/08/21 08:12:16;;;;;;;13.80;12.05;;;24.40;99.90;;;;;;4983970;28;20046;-68
2023/08/21 08:14:48;;;;;;;13.53;11.80;;;24.60;99.90;;;;;;4983656;28;20046;-69
2023/08/21 08:17:20;;;;;;;13.77;12.25;;;24.70;99.90;;;;;;4983178;28;20038;-68
2023/08/21 08:19:52;;;;;;;15.32;12.20;;;24.80;99.90;;;;;;4982381;28;20139;-70
2023/08/21 08:22:27;;;;;;;15.27;12.23;;;24.90;99.90;;;;;;4981509;28;20046;-67
2023/08/21 08:24:54;;;;;;;15.60;11.88;;;25.00;99.90;;;;;;4977340;28;20062;-67
2023/08/21 08:27:26;;;;;;;14.88;11.82;;;25.10;99.90;;;;;;4980050;28;20042;-68
2023/08/21 08:29:58;;;;;;;13.77;12.40;;;25.20;99.90;;;;;;4979671;28;20038;-67
2023/08/21 08:32:26;;;;;;;12.73;11.57;;;25.40;99.90;;;;;;4981315;28;20066;-69
2023/08/21 08:34:58;;;;;;;12.57;11.32;;;25.50;99.90;;;;;;4986877;28;20035;-68
2023/08/21 08:37:25;;;;;;;14.77;12.43;;;25.60;99.90;;;;;;4990046;28;20506;-69
2023/08/21 08:39:57;;;;;;;14.43;13.13;;;25.70;99.90;;;;;;4991595;28;20519;-70
2023/08/21 08:42:24;;;;;;;12.95;11.45;;;25.80;99.90;;;;;;4984872;28;20434;-72
2023/08/21 08:44:54;;;;;;;15.68;12.18;;;25.90;99.90;;;;;;5003998;28;20045;-69
2023/08/21 08:47:28;;;;;;;14.88;11.27;;;26.00;99.90;;;;;;5007423;28;20570;-69
2023/08/21 08:50:05;;;;;;;13.52;12.13;;;26.10;99.90;;;;;;4992307;28;20042;-71
2023/08/21 08:52:39;;;;;;;12.93;11.63;;;26.10;99.90;;;;;;4979444;28;20043;-71
2023/08/21 08:55:11;;;;;;;13.18;11.90;;;26.20;99.90;;;;;;4991923;28;20058;-73
2023/08/21 08:57:43;;;;;;;16.38;11.98;;;26.20;99.90;;;;;;4993281;28;20049;-72
2023/08/21 09:00:16;;;;;;;13.93;12.33;;;26.40;99.90;;;;;;4991403;28;20049;-70
2023/08/21 09:02:48;;;;;;;13.98;11.85;;;26.40;99.90;;;;;;4987094;28;20049;-71
2023/08/21 09:05:20;;;;;;;13.75;11.20;;;26.50;99.90;;;;;;4989141;28;20034;-69
2023/08/21 09:08:12;;;;;;;12.90;11.25;;;26.60;99.90;;;;;;4983887;28;20038;-69
2023/08/21 09:10:40;;;;;;;14.68;13.18;;;26.70;99.90;;;;;;4987539;28;20423;-69
2023/08/21 09:13:13;;;;;;;14.95;12.65;;;26.80;99.90;;;;;;4977378;28;20053;-69
2023/08/21 09:15:49;;;;;;;14.00;12.60;;;26.80;99.90;;;;;;4978458;28;20049;-69
2023/08/21 09:18:21;;;;;;;22.90;13.93;;;26.90;99.90;;;;;;4987773;28;20117;-69
2023/08/21 09:20:55;;;;;;;15.37;11.83;;;26.90;99.90;;;;;;5003205;28;20046;-67
2023/08/21 09:23:28;;;;;;;14.65;12.02;;;27.00;99.90;;;;;;4988591;28;20035;-69
2023/08/21 09:26:02;;;;;;;12.75;11.50;;;27.10;99.90;;;;;;4988184;28;20150;-72
2023/08/21 09:28:34;;;;;;;13.82;11.10;;;27.10;99.90;;;;;;4984827;28;20039;-68
2023/08/21 09:31:06;;;;;;;14.40;12.67;;;27.20;99.90;;;;;;4985956;28;20510;-67
2023/08/21 09:33:38;;;;;;;14.43;12.77;;;27.20;99.90;;;;;;5001866;28;20042;-67
2023/08/21 09:36:10;;;;;;;13.07;11.77;;;27.30;99.90;;;;;;4978796;28;20129;-66
2023/08/21 09:38:46;;;;;;;13.65;11.63;;;27.40;99.90;;;;;;4979950;28;20053;-68
2023/08/21 09:41:25;;;;;;;13.52;12.15;;;27.40;99.90;;;;;;4986159;28;20412;-66
2023/08/21 09:44:00;;;;;;;13.57;12.38;;;27.50;99.90;;;;;;4988168;28;20133;-66
2023/08/21 09:46:33;;;;;;;13.20;11.73;;;27.60;99.90;;;;;;4981830;28;20481;-69
2023/08/21 09:49:04;;;;;;;12.97;11.57;;;27.70;99.90;;;;;;4990867;28;20115;-67
2023/08/21 09:51:37;;;;;;;12.57;11.27;;;27.70;99.90;;;;;;5002399;28;20443;-66
2023/08/21 09:54:09;;;;;;;12.70;11.38;;;27.70;99.90;;;;;;4989221;28;20070;-67
2023/08/21 09:56:36;;;;;;;13.05;11.73;;;27.80;99.90;;;;;;4980556;28;20098;-66
2023/08/21 09:59:03;;;;;;;12.15;10.82;;;27.90;99.90;;;;;;4980732;28;20057;-67
2023/08/21 10:01:38;;;;;;;12.75;10.40;;;27.90;99.90;;;;;;4980364;28;20064;-68
2023/08/21 10:04:08;;;;;;;11.80;10.70;;;28.00;99.90;;;;;;4989753;28;20038;-68
2023/08/21 10:06:40;;;;;;;10.82;9.90;;;28.10;99.90;;;;;;4990963;28;20050;-66
2023/08/21 10:09:08;;;;;;;11.18;9.90;;;28.20;99.90;;;;;;4990860;28;20045;-68
2023/08/21 10:11:35;;;;;;;10.52;9.52;;;28.30;99.90;;;;;;4990372;28;20061;-67
2023/08/21 10:14:07;;;;;;;11.87;9.53;;;28.40;99.90;;;;;;4992078;28;20046;-70
2023/08/21 10:16:40;;;;;;;10.10;9.10;;;28.40;99.90;;;;;;4988639;28;20105;-65
2023/08/21 10:19:14;;;;;;;;;;;28.50;99.90;;;;;;4985108;28;20162;-65
2023/08/21 10:21:49;;;;;;;10.35;9.27;;;28.60;99.90;;;;;;4984900;28;19922;-66
2023/08/21 10:24:47;;;;;;;9.60;8.70;;;28.70;99.90;;;;;;4986835;28;20046;-65
2023/08/21 10:27:30;;;;;;;12.10;10.25;;;28.80;99.90;;;;;;4990449;28;20073;-66
2023/08/21 10:29:58;;;;;;;11.07;9.95;;;28.90;99.90;;;;;;4991487;28;20053;-66
2023/08/21 10:32:30;;;;;;;10.05;9.13;;;28.90;99.90;;;;;;4986011;28;20114;-66
2023/08/21 10:35:01;;;;;;;10.27;9.35;;;28.90;99.90;;;;;;4988410;28;20054;-66
2023/08/21 10:37:33;;;;;;;11.63;9.85;;;29.00;99.90;;;;;;5005210;28;20454;-66
2023/08/21 10:40:08;;;;;;;15.85;11.40;;;29.00;99.90;;;;;;4987546;28;20078;-65
2023/08/21 10:42:40;;;;;;;10.35;9.07;;;29.10;99.90;;;;;;4987175;28;20031;-66
2023/08/21 10:45:12;;;;;;;11.60;10.23;;;29.10;99.90;;;;;;4983430;28;20042;-66
2023/08/21 10:47:46;;;;;;;11.90;9.30;;;29.10;99.90;;;;;;4982903;28;20380;-66
2023/08/21 10:50:19;;;;;;;12.02;9.77;;;29.20;99.90;;;;;;4987560;28;20041;-66
2023/08/21 10:52:55;;;;;;;11.02;9.93;;;29.30;99.90;;;;;;4990882;28;20039;-65
2023/08/21 10:55:26;;;;;;;11.88;10.43;;;29.40;99.90;;;;;;4986243;28;20046;-65
2023/08/21 10:57:58;;;;;;;11.25;10.25;;;29.50;99.90;;;;;;4987703;28;20506;-66
2023/08/21 11:00:30;;;;;;;11.57;10.50;;;29.50;99.90;;;;;;4981755;28;20452;-66
2023/08/21 11:03:03;;;;;;;11.10;9.65;;;29.60;99.90;;;;;;4986411;28;20050;-66
2023/08/21 11:05:35;;;;;;;;;;;29.70;99.90;;;;;;4984394;28;20039;-66
2023/08/21 11:08:07;;;;;;;10.15;9.13;;;29.80;99.90;;;;;;4986029;28;19922;-65
2023/08/21 11:10:40;;;;;;;11.25;10.15;;;29.80;99.90;;;;;;4985309;28;20563;-65
2023/08/21 11:13:12;;;;;;;11.35;10.25;;;29.90;99.90;;;;;;4987873;28;20133;-66
2023/08/21 11:15:45;;;;;;;10.93;9.87;;;29.90;99.90;;;;;;4988905;28;20373;-66
2023/08/21 11:18:25;;;;;;;12.23;10.90;;;29.90;99.90;;;;;;4985444;28;20058;-66
2023/08/21 11:21:04;;;;;;;11.85;9.93;;;30.00;99.90;;;;;;4987841;28;20392;-66
2023/08/21 11:23:38;;;;;;;9.35;8.40;;;30.10;99.90;;;;;;5001749;28;20101;-65
2023/08/21 11:26:11;;;;;;;10.50;9.55;;;30.20;99.90;;;;;;4985572;28;20121;-65
2023/08/21 11:28:44;;;;;;;10.93;9.82;;;30.30;99.90;;;;;;4980847;28;20046;-66
2023/08/21 11:31:16;;;;;;;10.30;9.32;;;30.20;99.90;;;;;;4984851;28;20049;-65
2023/08/21 11:33:51;;;;;;;12.37;10.40;;;30.20;99.90;;;;;;4987179;28;20038;-66
2023/08/21 11:36:23;;;;;;;10.15;9.25;;;30.30;99.90;;;;;;4985466;28;20109;-67
2023/08/21 11:39:03;;;;;;;10.40;9.30;;;30.30;99.90;;;;;;4973465;28;20042;-68
2023/08/21 11:41:56;;;;;;;9.77;8.82;;;30.40;99.90;;;;;;4986749;28;20043;-66
2023/08/21 11:44:29;;;;;;;9.35;8.38;;;30.40;99.90;;;;;;4983509;28;20041;-65
2023/08/21 11:47:03;;;;;;;11.88;9.13;;;30.40;99.90;;;;;;4987498;28;20124;-65
2023/08/21 11:49:41;;;;;;;9.60;8.70;;;30.60;99.90;;;;;;4975508;28;20053;-66
2023/08/21 11:52:14;;;;;;;10.77;9.68;;;30.70;99.90;;;;;;4971028;28;20557;-66
2023/08/21 11:54:49;;;;;;;9.35;8.55;;;30.70;99.90;;;;;;4985220;28;20069;-66
2023/08/21 11:57:21;;;;;;;9.90;9.00;;;30.80;99.90;;;;;;4981369;28;20127;-66
2023/08/21 11:59:55;;;;;;;10.55;9.48;;;30.80;99.90;;;;;;4984219;28;20438;-65
2023/08/21 12:02:27;;;;;;;10.02;8.90;;;31.00;99.90;;;;;;4983991;28;20396;-66
2023/08/21 12:05:00;;;;;;;9.82;8.98;;;30.90;99.90;;;;;;4984538;28;20065;-66
2023/08/21 12:07:33;;;;;;;8.95;7.93;;;30.90;99.90;;;;;;4987026;28;20105;-66
2023/08/21 12:10:05;;;;;;;11.07;8.80;;;30.90;99.90;;;;;;4975792;28;20122;-66
2023/08/21 12:12:32;;;;;;;9.23;8.32;;;31.00;99.90;;;;;;4994440;28;20038;-66
2023/08/21 12:15:04;;;;;;;8.80;7.90;;;31.00;99.90;;;;;;4978403;28;20515;-66
2023/08/21 12:17:36;;;;;;;8.55;7.68;;;31.10;99.90;;;;;;4982169;28;20525;-66
2023/08/21 12:20:10;;;;;;;8.80;7.90;;;31.20;99.90;;;;;;4982971;28;20043;-66
2023/08/21 12:22:42;;;;;;;8.55;7.65;;;31.20;99.90;;;;;;4984832;28;20290;-66
2023/08/21 12:25:14;;;;;;;7.57;6.43;;;31.20;99.90;;;;;;4985691;28;20041;-66
2023/08/21 12:27:46;;;;;;;6.53;5.93;;;31.30;99.90;;;;;;4980868;28;20044;-68
2023/08/21 12:30:17;;;;;;;7.57;5.57;;;31.40;99.90;;;;;;4985492;28;20288;-68
2023/08/21 12:32:49;;;;;;;8.13;5.87;;;31.40;99.90;;;;;;4984704;28;20089;-68
2023/08/21 12:35:21;;;;;;;6.57;5.97;;;31.50;99.90;;;;;;5002471;28;20053;-66
2023/08/21 12:37:57;;;;;;;8.32;6.93;;;31.60;99.90;;;;;;4981835;28;20038;-66
2023/08/21 12:40:29;;;;;;;11.82;7.10;;;31.70;99.90;;;;;;4970615;28;20053;-66
2023/08/21 12:43:01;;;;;;;9.83;6.87;;;31.70;99.90;;;;;;4984464;28;20046;-66
2023/08/21 12:45:33;;;;;;;7.85;7.03;;;31.80;99.90;;;;;;4986317;28;20046;-66
2023/08/21 12:48:00;;;;;;;7.35;6.43;;;31.80;99.90;;;;;;4985470;28;20097;-66
2023/08/21 12:50:27;;;;;;;7.18;6.03;;;31.80;99.90;;;;;;4983102;28;20053;-67
2023/08/21 12:52:59;;;;;;;9.40;6.18;;;32.00;99.90;;;;;;4986522;28;20062;-66
2023/08/21 12:55:31;;;;;;;7.05;5.65;;;32.00;99.90;;;;;;4983494;28;20049;-66
2023/08/21 12:58:04;;;;;;;6.63;5.57;;;32.00;99.90;;;;;;4982389;28;20430;-66
2023/08/21 13:00:35;;;;;;;7.70;6.20;;;32.00;99.80;;;;;;4982086;28;20035;-66
2023/08/21 13:03:08;;;;;;;7.72;6.40;;;32.00;99.70;;;;;;4984005;28;20039;-67